Terminal Aerodrome Forecast
Issued by NWS Grand Forks, ND

Home | Current Version | Previous Version | Text Only | Print | Product List | Glossary Off
Versions: 1 2 3 4 5 6 7 8 9 10 11 12 13 14 15 16 17

643
FTUS43 KFGF 181754 CCA
TAFGFK
TAF COR
KGFK 181754Z 1818/1918 32014G23KT P6SM SCT024
      TEMPO 1818/1819 BKN024
     FM182300 29012KT P6SM SKC
     FM190400 VRB06KT P6SM SKC
     FM191400 20008KT P6SM SCT150=

USA.gov is the U.S. government's official web portal to all federal, state and local government web resources and services.